createdAt,value
2019-03-01T00:01:33.294Z,17.23
2019-03-01T00:04:03.980Z,17.20
2019-03-01T00:06:43.830Z,18.30
2019-03-01T00:09:30.284Z,17.90
2019-03-01T00:12:03.048Z,16.60
2019-03-01T00:14:53.644Z,16.77
2019-03-01T00:17:25.167Z,17.10
2019-03-01T00:19:56.930Z,17.10
2019-03-01T00:22:28.071Z,16.73
2019-03-01T00:25:03.719Z,17.00
2019-03-01T00:27:51.405Z,15.63
2019-03-01T00:30:39.007Z,16.17
2019-03-01T00:33:16.415Z,16.43
2019-03-01T00:36:02.831Z,17.40
2019-03-01T00:38:56.659Z,16.23
2019-03-01T00:41:50.151Z,15.30
2019-03-01T00:44:30.595Z,17.03
2019-03-01T00:46:59.236Z,17.23
2019-03-01T00:49:27.727Z,17.97
2019-03-01T00:51:56.173Z,16.13
2019-03-01T00:54:24.611Z,18.60
2019-03-01T00:56:53.105Z,18.53
2019-03-01T00:59:21.836Z,16.50
2019-03-01T01:01:50.326Z,17.10
2019-03-01T01:04:19.786Z,16.00
2019-03-01T01:06:48.274Z,16.53
2019-03-01T01:09:16.758Z,14.70
2019-03-01T01:11:46.335Z,12.87
2019-03-01T01:14:14.833Z,12.80
2019-03-01T01:16:43.388Z,10.00
2019-03-01T01:19:11.866Z,8.70
2019-03-01T01:21:40.415Z,8.10
2019-03-01T01:24:08.900Z,7.07
2019-03-01T01:26:37.380Z,8.00
2019-03-01T01:29:05.889Z,7.30
2019-03-01T01:31:34.371Z,6.97
2019-03-01T01:34:02.843Z,6.90
2019-03-01T01:36:31.340Z,6.03
2019-03-01T01:38:59.833Z,6.90
2019-03-01T01:41:28.309Z,6.00
2019-03-01T01:43:56.850Z,5.90
2019-03-01T01:46:26.307Z,7.37
2019-03-01T01:48:54.859Z,6.60
2019-03-01T01:51:23.279Z,5.77
2019-03-01T01:53:51.875Z,5.60
2019-03-01T01:56:20.353Z,6.83
2019-03-01T01:58:48.780Z,5.90
2019-03-01T02:01:17.273Z,6.40
2019-03-01T02:03:45.829Z,5.33
2019-03-01T02:06:14.250Z,5.60
2019-03-01T02:08:42.792Z,4.87
2019-03-01T02:11:11.852Z,5.30
2019-03-01T02:13:40.273Z,5.13
2019-03-01T02:16:08.828Z,4.80
2019-03-01T02:18:37.236Z,5.20
2019-03-01T02:21:05.728Z,5.53
2019-03-01T02:23:34.128Z,5.47
2019-03-01T02:26:02.612Z,6.03
2019-03-01T02:28:31.050Z,5.53
2019-03-01T02:31:00.049Z,6.20
2019-03-01T02:33:28.536Z,6.20
2019-03-01T02:35:56.944Z,5.77
2019-03-01T02:38:25.497Z,4.50
2019-03-01T02:40:53.975Z,6.20
2019-03-01T02:43:22.479Z,5.97
2019-03-01T02:45:50.892Z,5.37
2019-03-01T02:48:19.316Z,5.37
2019-03-01T02:50:47.804Z,6.00
2019-03-01T02:53:16.547Z,6.53
2019-03-01T02:55:45.040Z,5.60
2019-03-01T02:58:13.532Z,6.10
2019-03-01T03:00:42.038Z,5.90
2019-03-01T03:03:10.508Z,6.47
2019-03-01T03:06:10.436Z,6.40
2019-03-01T03:08:38.916Z,6.53
2019-03-01T03:11:07.711Z,5.40
2019-03-01T03:13:36.135Z,6.00
2019-03-01T03:16:04.635Z,6.03
2019-03-01T03:18:33.038Z,5.70
2019-03-01T03:21:01.753Z,5.40
2019-03-01T03:23:30.155Z,5.33
2019-03-01T03:25:58.680Z,5.10
2019-03-01T03:28:27.095Z,4.77
2019-03-01T03:30:55.652Z,5.17
2019-03-01T03:33:24.510Z,4.23
2019-03-01T03:35:52.953Z,4.40
2019-03-01T03:38:21.363Z,4.07
2019-03-01T03:40:49.845Z,5.20
2019-03-01T03:43:18.268Z,3.83
2019-03-01T03:45:46.744Z,4.80
2019-03-01T03:48:15.161Z,4.40
2019-03-01T03:50:43.952Z,3.83
2019-03-01T03:53:12.508Z,4.60
2019-03-01T03:55:40.987Z,3.77
2019-03-01T03:58:09.492Z,4.17
2019-03-01T04:00:39.043Z,4.30
2019-03-01T04:03:07.523Z,4.27
2019-03-01T04:05:36.279Z,4.10
2019-03-01T04:08:05.127Z,5.10
2019-03-01T04:10:34.598Z,4.00
2019-03-01T04:13:03.037Z,4.00
2019-03-01T04:15:31.511Z,3.50
2019-03-01T04:17:59.981Z,4.67
2019-03-01T04:20:29.562Z,4.53
2019-03-01T04:22:58.010Z,5.43
2019-03-01T04:25:26.424Z,4.90
2019-03-01T04:27:54.916Z,5.03
2019-03-01T04:30:23.394Z,4.30
2019-03-01T04:32:51.954Z,4.10
2019-03-01T04:35:20.527Z,4.73
2019-03-01T04:37:48.940Z,3.70
2019-03-01T04:40:17.424Z,4.30
2019-03-01T04:42:45.926Z,5.00
2019-03-01T04:45:14.806Z,4.30
2019-03-01T04:47:43.663Z,4.07
2019-03-01T04:50:12.407Z,3.87
2019-03-01T04:52:41.312Z,4.50
2019-03-01T04:55:14.115Z,4.30
2019-03-01T04:57:43.424Z,3.90
2019-03-01T05:00:13.454Z,4.63
2019-03-01T05:02:41.871Z,4.73
2019-03-01T05:05:10.371Z,5.20
2019-03-01T05:07:38.866Z,4.20
2019-03-01T05:10:10.911Z,4.53
2019-03-01T05:12:39.399Z,4.43
2019-03-01T05:15:08.734Z,4.70
2019-03-01T05:17:37.143Z,4.87
2019-03-01T05:20:05.809Z,3.70
2019-03-01T05:22:34.213Z,4.40
2019-03-01T05:25:02.679Z,5.20
2019-03-01T05:27:31.218Z,5.03
2019-03-01T05:29:59.690Z,4.93
2019-03-01T05:32:28.166Z,4.70
2019-03-01T05:34:56.618Z,4.70
2019-03-01T05:37:25.020Z,4.93
2019-03-01T05:39:53.424Z,4.80
2019-03-01T05:42:21.854Z,4.30
2019-03-01T05:44:50.265Z,5.23
2019-03-01T05:47:18.695Z,5.53
2019-03-01T05:49:47.190Z,4.43
2019-03-01T05:52:15.662Z,5.30
2019-03-01T05:54:44.096Z,4.17
2019-03-01T05:57:12.518Z,4.57
2019-03-01T05:59:41.006Z,4.03
2019-03-01T06:02:22.398Z,4.27
2019-03-01T06:04:54.019Z,4.47
2019-03-01T06:07:41.747Z,4.30
2019-03-01T06:10:15.789Z,4.70
2019-03-01T06:12:50.613Z,3.97
2019-03-01T06:15:25.569Z,4.67
2019-03-01T06:18:04.119Z,5.40
2019-03-01T06:20:57.860Z,4.13
2019-03-01T06:23:48.295Z,4.80
2019-03-01T06:26:23.486Z,5.43
2019-03-01T06:29:23.122Z,6.20
2019-03-01T06:32:03.515Z,5.53
2019-03-01T06:34:51.142Z,5.90
2019-03-01T06:37:27.638Z,5.43
2019-03-01T06:40:18.696Z,5.60
2019-03-01T06:43:06.321Z,5.03
2019-03-01T06:45:52.826Z,4.80
2019-03-01T06:48:29.280Z,6.00
2019-03-01T06:51:05.052Z,5.63
2019-03-01T06:53:33.901Z,5.53
2019-03-01T06:56:03.372Z,5.70
2019-03-01T06:58:36.294Z,5.30
2019-03-01T07:01:13.483Z,6.10
2019-03-01T07:03:42.656Z,5.30
2019-03-01T07:06:11.135Z,5.93
2019-03-01T07:08:39.539Z,5.73
2019-03-01T07:11:07.957Z,7.10
2019-03-01T07:13:36.447Z,7.50
2019-03-01T07:16:04.931Z,7.80
2019-03-01T07:18:33.431Z,9.17
2019-03-01T07:21:01.831Z,6.93
2019-03-01T07:23:36.741Z,7.60
2019-03-01T07:26:00.443Z,8.60
2019-03-01T07:28:28.918Z,7.37
2019-03-01T07:30:57.391Z,8.30
2019-03-01T07:33:25.923Z,7.13
2019-03-01T07:35:54.325Z,6.43
2019-03-01T07:38:22.734Z,7.23
2019-03-01T07:40:51.194Z,7.90
2019-03-01T07:43:19.673Z,6.03
2019-03-01T07:45:48.157Z,8.00
2019-03-01T07:48:16.576Z,5.83
2019-03-01T07:50:45.274Z,5.77
2019-03-01T07:53:14.828Z,5.80
2019-03-01T07:55:44.101Z,6.30
2019-03-01T07:58:12.744Z,6.60
2019-03-01T08:00:41.304Z,5.77
2019-03-01T08:03:11.908Z,6.50
2019-03-01T08:05:40.888Z,6.33
2019-03-01T08:08:09.304Z,6.43
2019-03-01T08:10:37.786Z,5.90
2019-03-01T08:13:06.271Z,6.60
2019-03-01T08:15:34.767Z,6.30
2019-03-01T08:18:04.830Z,6.30
2019-03-01T08:20:33.846Z,5.90
2019-03-01T08:23:02.599Z,6.00
2019-03-01T08:25:31.091Z,4.90
2019-03-01T08:27:59.583Z,5.27
2019-03-01T08:30:28.080Z,4.73
2019-03-01T08:32:56.573Z,3.93
2019-03-01T08:35:25.308Z,4.10
2019-03-01T08:37:55.160Z,4.20
2019-03-01T08:40:23.975Z,2.40
2019-03-01T08:42:52.466Z,2.63
2019-03-01T08:45:20.959Z,2.80
2019-03-01T08:47:49.434Z,2.90
2019-03-01T08:50:17.933Z,3.10
2019-03-01T08:52:46.438Z,2.30
2019-03-01T08:55:15.544Z,2.33
2019-03-01T08:57:45.043Z,2.57
2019-03-01T09:00:18.174Z,2.30
2019-03-01T09:02:46.580Z,3.23
2019-03-01T09:05:15.426Z,3.53
2019-03-01T09:07:44.580Z,4.00
2019-03-01T09:10:13.596Z,3.90
2019-03-01T09:12:42.080Z,4.13
2019-03-01T09:15:11.595Z,4.40
2019-03-01T09:17:40.080Z,3.93
2019-03-01T09:20:09.469Z,4.77
2019-03-01T09:22:37.878Z,4.43
2019-03-01T09:25:08.762Z,4.97
2019-03-01T09:27:36.571Z,4.63
2019-03-01T09:30:05.974Z,5.47
2019-03-01T09:32:35.423Z,5.43
2019-03-01T09:35:22.017Z,4.77
2019-03-01T09:37:50.715Z,5.70
2019-03-01T09:40:19.111Z,5.20
2019-03-01T09:42:50.666Z,4.90
2019-03-01T09:45:19.243Z,4.60
2019-03-01T09:47:47.808Z,5.70
2019-03-01T09:50:17.833Z,5.70
2019-03-01T09:52:46.892Z,4.53
2019-03-01T09:55:15.515Z,5.13
2019-03-01T09:57:44.646Z,5.00
2019-03-01T10:00:13.676Z,4.87
2019-03-01T10:02:42.174Z,4.50
2019-03-01T10:05:11.364Z,3.63
2019-03-01T10:07:39.911Z,4.70
2019-03-01T10:10:09.416Z,4.80
2019-03-01T10:12:38.232Z,4.80
2019-03-01T10:15:07.888Z,4.30
2019-03-01T10:17:36.495Z,3.93
2019-03-01T10:20:05.575Z,4.67
2019-03-01T10:22:34.110Z,3.70
2019-03-01T10:25:02.555Z,4.53
2019-03-01T10:27:31.033Z,3.90
2019-03-01T10:29:59.531Z,2.83
2019-03-01T10:32:28.036Z,3.27
2019-03-01T10:34:56.435Z,3.37
2019-03-01T10:37:24.919Z,2.20
2019-03-01T10:39:55.595Z,2.57
2019-03-01T10:42:23.605Z,2.63
2019-03-01T10:44:52.012Z,2.67
2019-03-01T10:47:20.435Z,2.83
2019-03-01T10:49:48.915Z,3.13
2019-03-01T10:52:17.401Z,3.67
2019-03-01T10:54:45.911Z,3.40
2019-03-01T10:57:14.314Z,3.57
2019-03-01T10:59:43.023Z,3.20
2019-03-01T11:02:11.504Z,3.47
2019-03-01T11:04:39.986Z,4.83
2019-03-01T11:07:08.790Z,3.70
2019-03-01T11:09:37.573Z,4.33
2019-03-01T11:12:06.304Z,3.80
2019-03-01T11:14:34.704Z,4.00
2019-03-01T11:17:04.048Z,4.70
2019-03-01T11:19:32.596Z,4.10
2019-03-01T11:22:01.025Z,3.43
2019-03-01T11:24:29.528Z,2.63
2019-03-01T11:26:58.044Z,2.20
2019-03-01T11:29:26.451Z,3.23
2019-03-01T11:31:54.868Z,2.30
2019-03-01T11:34:23.362Z,1.60
2019-03-01T11:36:52.343Z,1.60
2019-03-01T11:39:21.277Z,1.07
2019-03-01T11:41:49.687Z,0.97
2019-03-01T11:44:18.163Z,1.10
2019-03-01T11:46:46.983Z,1.07
2019-03-01T11:49:15.383Z,1.77
2019-03-01T11:51:43.887Z,0.97
2019-03-01T11:54:12.307Z,1.43
2019-03-01T11:56:40.721Z,1.90
2019-03-01T11:59:09.212Z,1.77
2019-03-01T12:01:37.638Z,1.70
2019-03-01T12:04:06.117Z,1.40
2019-03-01T12:06:34.686Z,1.50
2019-03-01T12:09:04.284Z,1.20
2019-03-01T12:11:34.146Z,1.23
2019-03-01T12:14:02.558Z,3.73
2019-03-01T12:16:31.335Z,1.37
2019-03-01T12:18:59.766Z,1.50
2019-03-01T12:21:28.219Z,0.97
2019-03-01T12:23:56.633Z,0.80
2019-03-01T12:26:25.038Z,1.10
2019-03-01T12:28:53.467Z,1.07
2019-03-01T12:31:21.889Z,1.50
2019-03-01T12:33:50.377Z,1.10
2019-03-01T12:36:18.789Z,0.87
2019-03-01T12:38:47.237Z,1.10
2019-03-01T12:41:15.715Z,1.33
2019-03-01T12:43:44.563Z,0.67
2019-03-01T12:46:12.989Z,1.37
2019-03-01T12:48:41.387Z,1.10
2019-03-01T12:51:09.878Z,2.60
2019-03-01T12:53:38.379Z,1.60
2019-03-01T12:56:06.853Z,2.23
2019-03-01T12:58:35.266Z,1.93
2019-03-01T13:01:03.761Z,1.50
2019-03-01T13:03:32.247Z,0.87
2019-03-01T13:06:00.758Z,1.00
2019-03-01T13:08:29.394Z,1.00
2019-03-01T13:10:58.958Z,1.00
2019-03-01T13:13:27.368Z,1.07
2019-03-01T13:15:55.911Z,1.10
2019-03-01T13:18:24.324Z,1.30
2019-03-01T13:20:52.734Z,5.77
2019-03-01T13:23:21.160Z,1.10
2019-03-01T13:25:49.573Z,1.40
2019-03-01T13:28:17.972Z,1.10
2019-03-01T13:30:46.748Z,1.40
2019-03-01T13:33:15.151Z,1.30
2019-03-01T13:35:43.559Z,1.67
2019-03-01T13:38:12.060Z,1.60
2019-03-01T13:40:40.456Z,1.60
2019-03-01T13:43:08.963Z,1.27
2019-03-01T13:45:37.755Z,1.20
2019-03-01T13:48:06.635Z,1.30
2019-03-01T13:50:35.118Z,1.10
2019-03-01T13:53:03.615Z,1.53
2019-03-01T13:55:32.973Z,0.90
2019-03-01T13:58:02.124Z,1.13
2019-03-01T14:00:30.729Z,1.27
2019-03-01T14:02:59.343Z,1.00
2019-03-01T14:05:27.843Z,1.10
2019-03-01T14:07:56.987Z,1.50
2019-03-01T14:10:25.487Z,1.20
2019-03-01T14:12:53.970Z,1.10
2019-03-01T14:15:22.618Z,2.30
2019-03-01T14:17:51.328Z,1.13
2019-03-01T14:20:21.119Z,1.00
2019-03-01T14:22:49.896Z,1.77
2019-03-01T14:25:18.483Z,1.40
2019-03-01T14:27:46.960Z,1.30
2019-03-01T14:30:16.380Z,1.17
2019-03-01T14:32:44.864Z,1.70
2019-03-01T14:35:13.918Z,1.83
2019-03-01T14:37:43.452Z,1.30
2019-03-01T14:40:12.244Z,1.27
2019-03-01T14:42:46.394Z,1.20
2019-03-01T14:45:12.187Z,1.00
2019-03-01T14:47:40.675Z,1.40
2019-03-01T14:50:09.983Z,1.27
2019-03-01T14:52:38.471Z,2.07
2019-03-01T14:55:07.671Z,1.27
2019-03-01T14:57:38.035Z,1.40
2019-03-01T15:00:28.956Z,1.30
2019-03-01T15:03:04.122Z,1.30
2019-03-01T15:05:32.877Z,1.63
2019-03-01T15:08:03.186Z,1.63
2019-03-01T15:10:32.206Z,1.40
2019-03-01T15:13:01.335Z,1.20
2019-03-01T15:15:32.295Z,1.00
2019-03-01T15:18:00.127Z,1.00
2019-03-01T15:20:28.529Z,1.30
2019-03-01T15:22:57.022Z,1.23
2019-03-01T15:25:25.452Z,1.17
2019-03-01T15:27:53.941Z,1.20
2019-03-01T15:30:23.179Z,1.20
2019-03-01T15:32:52.562Z,1.30
2019-03-01T15:35:21.106Z,1.17
2019-03-01T15:37:49.784Z,1.30
2019-03-01T15:40:18.276Z,1.20
2019-03-01T15:42:47.044Z,7.40
2019-03-01T15:45:16.493Z,1.23
2019-03-01T15:47:45.124Z,0.93
2019-03-01T15:50:13.816Z,1.70
2019-03-01T15:52:45.712Z,1.80
2019-03-01T15:55:12.909Z,1.60
2019-03-01T15:57:41.411Z,1.40
2019-03-01T16:00:10.287Z,1.20
2019-03-01T16:02:40.408Z,1.50
2019-03-01T16:05:09.127Z,1.30
2019-03-01T16:07:37.618Z,1.70
2019-03-01T16:10:06.938Z,1.77
2019-03-01T16:12:36.268Z,1.50
2019-03-01T16:15:05.731Z,2.03
2019-03-01T16:17:34.492Z,1.80
2019-03-01T16:20:02.976Z,1.63
2019-03-01T16:22:31.536Z,1.63
2019-03-01T16:25:00.302Z,1.50
2019-03-01T16:27:28.746Z,2.63
2019-03-01T16:29:57.266Z,1.93
2019-03-01T16:32:25.701Z,1.87
2019-03-01T16:34:54.180Z,1.93
2019-03-01T16:37:22.652Z,2.07
2019-03-01T16:39:56.185Z,2.13
2019-03-01T16:42:23.255Z,2.37
2019-03-01T16:44:52.767Z,2.30
2019-03-01T16:47:23.221Z,2.17
2019-03-01T16:49:51.261Z,2.40
2019-03-01T16:52:19.696Z,2.23
2019-03-01T16:54:51.493Z,2.87
2019-03-01T16:57:18.682Z,3.10
2019-03-01T16:59:47.330Z,2.83
2019-03-01T17:02:15.801Z,2.67
2019-03-01T17:04:44.263Z,2.50
2019-03-01T17:07:12.818Z,2.30
2019-03-01T17:09:41.592Z,2.30
2019-03-01T17:12:10.046Z,2.50
2019-03-01T17:14:39.557Z,2.53
2019-03-01T17:17:08.090Z,2.30
2019-03-01T17:19:36.742Z,2.63
2019-03-01T17:22:05.263Z,3.13
2019-03-01T17:24:33.738Z,2.70
2019-03-01T17:27:05.723Z,3.20
2019-03-01T17:29:35.759Z,3.00
2019-03-01T17:32:03.904Z,4.60
2019-03-01T17:34:32.386Z,2.90
2019-03-01T17:37:00.870Z,3.13
2019-03-01T17:39:29.350Z,2.90
2019-03-01T17:41:57.818Z,2.90
2019-03-01T17:44:26.304Z,3.53
2019-03-01T17:46:54.833Z,3.27
2019-03-01T17:49:23.235Z,4.00
2019-03-01T17:51:53.443Z,3.40
2019-03-01T17:54:22.291Z,3.77
2019-03-01T17:56:53.992Z,3.60
2019-03-01T17:59:23.297Z,3.50
2019-03-01T18:01:51.831Z,4.70
2019-03-01T18:04:20.223Z,4.67
2019-03-01T18:06:51.337Z,4.20
2019-03-01T18:09:18.795Z,4.10
2019-03-01T18:11:47.267Z,4.57
2019-03-01T18:14:15.679Z,4.10
2019-03-01T18:16:44.078Z,3.90
2019-03-01T18:19:12.515Z,4.50
2019-03-01T18:21:41.008Z,4.83
2019-03-01T18:24:11.009Z,5.50
2019-03-01T18:26:40.885Z,6.30
2019-03-01T18:29:09.711Z,5.60
2019-03-01T18:31:39.376Z,5.47
2019-03-01T18:34:08.215Z,5.20
2019-03-01T18:36:36.965Z,5.00
2019-03-01T18:39:09.860Z,4.73
2019-03-01T18:41:39.124Z,5.53
2019-03-01T18:44:07.602Z,5.37
2019-03-01T18:46:36.376Z,5.90
2019-03-01T18:49:06.247Z,5.10
2019-03-01T18:51:34.926Z,6.10
2019-03-01T18:54:04.090Z,7.07
2019-03-01T18:56:33.416Z,7.00
2019-03-01T18:59:01.898Z,5.77
2019-03-01T19:01:30.483Z,6.50
2019-03-01T19:03:59.399Z,6.47
2019-03-01T19:06:29.305Z,6.10
2019-03-01T19:08:58.212Z,6.97
2019-03-01T19:11:26.637Z,7.00
2019-03-01T19:13:58.567Z,6.40
2019-03-01T19:16:28.576Z,6.80
2019-03-01T19:18:56.493Z,6.97
2019-03-01T19:21:24.895Z,8.13
2019-03-01T19:23:53.337Z,7.00
2019-03-01T19:26:21.741Z,7.40
2019-03-01T19:28:50.221Z,8.10
2019-03-01T19:31:21.743Z,7.97
2019-03-01T19:33:48.815Z,7.30
2019-03-01T19:36:17.653Z,6.90
2019-03-01T19:38:46.517Z,7.33
2019-03-01T19:41:15.554Z,6.97
2019-03-01T19:43:45.701Z,7.50
2019-03-01T19:46:15.713Z,8.70
2019-03-01T19:48:44.273Z,7.30
2019-03-01T19:51:12.994Z,7.10
2019-03-01T19:53:41.467Z,9.20
2019-03-01T19:56:09.958Z,7.70
2019-03-01T19:58:38.452Z,8.67
2019-03-01T20:01:06.942Z,8.70
2019-03-01T20:03:35.460Z,8.67
2019-03-01T20:06:04.475Z,9.03
2019-03-01T20:08:34.042Z,9.73
2019-03-01T20:11:02.542Z,9.10
2019-03-01T20:13:30.968Z,9.90
2019-03-01T20:15:59.395Z,8.83
2019-03-01T20:18:27.813Z,9.00
2019-03-01T20:20:56.300Z,8.67
2019-03-01T20:23:26.465Z,10.37
2019-03-01T20:25:54.988Z,9.40
2019-03-01T20:28:23.959Z,8.73
2019-03-01T20:30:52.443Z,9.60
2019-03-01T20:33:23.386Z,10.77
2019-03-01T20:35:51.139Z,9.90
2019-03-01T20:38:20.714Z,8.73
2019-03-01T20:40:49.194Z,9.27
2019-03-01T20:43:17.611Z,9.23
2019-03-01T20:45:46.103Z,10.20
2019-03-01T20:48:14.939Z,10.13
2019-03-01T20:50:43.354Z,10.07
2019-03-01T20:53:13.404Z,8.63
2019-03-01T20:55:42.032Z,9.67
2019-03-01T20:58:10.454Z,10.57
2019-03-01T21:00:38.946Z,11.50
2019-03-01T21:03:07.438Z,13.33
2019-03-01T21:05:35.871Z,12.80
2019-03-01T21:08:04.374Z,12.90
2019-03-01T21:10:32.905Z,11.83
2019-03-01T21:13:01.400Z,12.60
2019-03-01T21:15:34.563Z,13.10
2019-03-01T21:18:04.351Z,13.43
2019-03-01T21:20:32.927Z,14.10
2019-03-01T21:23:01.395Z,13.30
2019-03-01T21:25:29.810Z,12.40
2019-03-01T21:28:00.860Z,14.00
2019-03-01T21:30:28.513Z,13.13
2019-03-01T21:32:57.371Z,13.93
2019-03-01T21:35:25.879Z,12.90
2019-03-01T21:37:54.380Z,12.43
2019-03-01T21:40:22.950Z,15.33
2019-03-01T21:42:52.990Z,12.63
2019-03-01T21:45:22.533Z,13.03
2019-03-01T21:47:51.414Z,13.10
2019-03-01T21:50:19.842Z,12.30
2019-03-01T21:52:48.354Z,13.60
2019-03-01T21:55:17.211Z,13.77
2019-03-01T21:57:47.050Z,13.20
2019-03-01T22:00:16.850Z,13.77
2019-03-01T22:02:48.925Z,14.93
2019-03-01T22:05:15.644Z,14.50
2019-03-01T22:07:44.130Z,12.93
2019-03-01T22:10:12.976Z,14.40
2019-03-01T22:12:41.456Z,15.23
2019-03-01T22:15:12.438Z,14.77
2019-03-01T22:17:41.002Z,14.93
2019-03-01T22:20:09.911Z,16.47
2019-03-01T22:22:38.877Z,18.10
2019-03-01T22:25:07.552Z,17.17
2019-03-01T22:27:36.315Z,15.47
2019-03-01T22:30:05.187Z,14.77
2019-03-01T22:32:34.077Z,15.97
2019-03-01T22:35:03.177Z,16.13
2019-03-01T22:37:32.926Z,16.77
2019-03-01T22:40:01.463Z,19.93
2019-03-01T22:42:32.123Z,20.77
2019-03-01T22:45:00.994Z,20.87
2019-03-01T22:47:32.451Z,23.13
2019-03-01T22:50:04.075Z,22.57
2019-03-01T22:52:31.730Z,22.50
2019-03-01T22:55:01.613Z,23.33
2019-03-01T22:57:31.174Z,24.33
2019-03-01T22:59:59.651Z,22.40
2019-03-01T23:02:28.146Z,22.93
2019-03-01T23:04:56.570Z,24.60
2019-03-01T23:07:26.372Z,25.43
2019-03-01T23:09:55.234Z,22.37
2019-03-01T23:12:23.743Z,19.00
2019-03-01T23:14:52.232Z,21.07
2019-03-01T23:17:20.998Z,17.43
2019-03-01T23:19:51.682Z,13.30
2019-03-01T23:22:19.695Z,7.93
2019-03-01T23:24:49.465Z,9.07
2019-03-01T23:27:18.027Z,8.73
2019-03-01T23:29:46.829Z,11.00
2019-03-01T23:32:16.518Z,12.93
2019-03-01T23:34:45.593Z,12.80
2019-03-01T23:37:15.580Z,14.57
2019-03-01T23:39:44.803Z,15.40
2019-03-01T23:42:13.563Z,14.93
2019-03-01T23:44:42.390Z,14.10
2019-03-01T23:47:10.983Z,11.80
2019-03-01T23:49:39.396Z,10.93
2019-03-01T23:52:07.807Z,11.93
2019-03-01T23:54:36.854Z,13.23
2019-03-01T23:57:06.917Z,12.33
2019-03-01T23:59:35.498Z,13.80
